Aérodrome :
LOGIN :

S'inscrire | Disclaimer

   EN    FR    IT 

 










Légende :    VFR   VFR Marginal   IFR   IFR Intensif   IFR Très Intensif
Visi : 
Plafond : 
>= 8 km
>= 3000ft
5 à 8 km
1000 à 3000 ft
1500m à 5 km
500 à 1000 ft
800 à 1500m
200 à 500 ft
< 800m
< 200 ft
Symboles :   Orages  Brouillard  Fortes neiges  Fortes précipitations  Vent > 20 kt
SIGMETs :   Divers  Orages  Givrage  Turbulence  Onde Orograph.  Cendres Volcan.






- Altitude de l'aérodrome : 1197 ft
- Code IATA : SPM


ETAD - Spangdahlem Ab

DERNIER METAR :
  • 131656Z AUTO 15005KT 9999 BKN090 23/05 A3011 RMK AO2 SLP178 T02300050 $

METARs EXPIRÉS :
  • 131556Z AUTO 13005KT 9999 FEW090 24/04 A3012 RMK AO2 SLP181 T02410044 $
  • 131456Z AUTO 22004KT 9999 CLR 23/05 A3014 RMK AO2 SLP188 T02300045 57015 $
  • 131426Z AUTO 16004KT 9999 BKN080 24/05 A3014 RMK AO2 SLP187 $

TAF AMD TAF ETAD
Valide du 13 à 13h jusqu'au 14 à 18h UTC


131328Z 1313/1418 VRB06KT 9999 SCT050 QNH3009INS
BECMG 1401/1402 21006KT 9999 FEW050 QNH2998INS
BECMG 1416/1417 20009KT 9999 BKN040 QNH2990INS TX28/1413Z TN09/1402Z



MET'MAP, la Météo Aéronautique d'un coup d'oeil ! - Copyright ORBIFLY Décembre 2007 - Disclaimer

ORBIFLY MET'MAP TEAM :

Programmation & Développement : Alexandra Zaïnal
Sur une idée originale de : Baudouin d'Aumeries
Assistance à la programmation : Marc-Olivier Méhu
Soutien technique & logistique : Manuel Goepfert

Contact : metmap@orbifly.com




SOURCES & CREDITS :

   NOAA